createdAt,value
2023-05-15T00:00:46.021Z,6.40
2023-05-15T00:03:48.685Z,6.25
2023-05-15T00:06:51.254Z,6.13
2023-05-15T00:09:53.375Z,7.43
2023-05-15T00:12:55.742Z,7.20
2023-05-15T00:15:58.148Z,7.10
2023-05-15T00:19:00.388Z,6.20
2023-05-15T00:22:02.453Z,6.70
2023-05-15T00:25:04.925Z,6.57
2023-05-15T00:28:07.026Z,8.00
2023-05-15T00:31:09.259Z,6.13
2023-05-15T00:34:11.254Z,6.18
2023-05-15T00:37:13.586Z,5.03
2023-05-15T00:40:23.837Z,6.82
2023-05-15T00:43:26.944Z,4.80
2023-05-15T00:46:31.988Z,6.97
2023-05-15T00:49:35.936Z,6.13
2023-05-15T00:52:38.835Z,6.25
2023-05-15T00:55:42.531Z,6.53
2023-05-15T00:58:47.529Z,6.72
2023-05-15T01:01:50.384Z,6.43
2023-05-15T01:04:52.575Z,7.30
2023-05-15T01:08:08.094Z,5.40
2023-05-15T01:11:12.455Z,6.65
2023-05-15T01:17:16.526Z,6.47
2023-05-15T01:20:21.241Z,6.18
2023-05-15T01:26:52.967Z,6.68
2023-05-15T01:30:34.777Z,5.20
2023-05-15T01:33:43.012Z,5.97
2023-05-15T01:36:53.587Z,5.05
2023-05-15T01:40:01.276Z,4.97
2023-05-15T01:43:09.616Z,5.65
2023-05-15T01:46:17.583Z,6.93
2023-05-15T01:49:23.851Z,5.85
2023-05-15T01:52:38.882Z,5.57
2023-05-15T01:55:42.276Z,6.15
2023-05-15T01:58:45.407Z,5.68
2023-05-15T02:01:48.552Z,5.72
2023-05-15T02:04:51.880Z,6.20
2023-05-15T02:07:54.916Z,7.13
2023-05-15T02:10:58.638Z,5.32
2023-05-15T02:14:01.729Z,4.85
2023-05-15T02:17:04.426Z,5.75
2023-05-15T02:20:08.117Z,5.13
2023-05-15T02:23:10.267Z,6.38
2023-05-15T02:26:37.427Z,6.90
2023-05-15T02:29:54.577Z,6.10
2023-05-15T02:33:22.726Z,6.50
2023-05-15T02:36:32.507Z,5.70
2023-05-15T02:39:35.070Z,6.78
2023-05-15T02:42:37.952Z,7.05
2023-05-15T02:45:41.161Z,5.82
2023-05-15T02:48:44.308Z,6.90
2023-05-15T02:51:46.628Z,6.72
2023-05-15T02:54:48.798Z,6.82
2023-05-15T02:57:51.032Z,6.38
2023-05-15T03:00:53.133Z,7.63
2023-05-15T03:03:55.297Z,7.45
2023-05-15T03:06:57.503Z,7.38
2023-05-15T03:10:00.611Z,5.85
2023-05-15T03:13:03.255Z,6.18
2023-05-15T03:16:06.123Z,5.93
2023-05-15T03:19:08.330Z,6.45
2023-05-15T03:22:10.514Z,5.53
2023-05-15T03:25:12.702Z,5.88
2023-05-15T03:28:14.870Z,6.82
2023-05-15T03:31:17.067Z,5.30
2023-05-15T03:34:19.250Z,5.28
2023-05-15T03:37:21.408Z,4.13
2023-05-15T03:40:23.508Z,7.32
2023-05-15T03:43:27.872Z,4.93
2023-05-15T03:46:30.120Z,4.75
2023-05-15T03:49:32.506Z,6.13
2023-05-15T03:52:34.544Z,5.90
2023-05-15T03:55:36.821Z,4.93
2023-05-15T03:58:39.034Z,5.75
2023-05-15T04:01:54.680Z,5.68
2023-05-15T04:05:06.881Z,5.50
2023-05-15T04:08:11.085Z,5.40
2023-05-15T04:11:13.509Z,4.60
2023-05-15T04:14:15.911Z,4.95
2023-05-15T04:17:26.758Z,3.85
2023-05-15T04:20:33.717Z,5.38
2023-05-15T04:23:37.862Z,6.22
2023-05-15T04:26:40.101Z,4.60
2023-05-15T04:29:42.184Z,5.25
2023-05-15T04:32:44.647Z,4.80
2023-05-15T04:35:48.196Z,4.43
2023-05-15T04:38:50.268Z,3.97
2023-05-15T04:41:52.405Z,4.43
2023-05-15T04:44:54.641Z,5.65
2023-05-15T04:47:57.124Z,4.53
2023-05-15T04:50:59.216Z,3.95
2023-05-15T04:54:01.266Z,6.82
2023-05-15T04:57:03.764Z,6.15
2023-05-15T05:00:12.112Z,6.00
2023-05-15T05:03:14.474Z,6.47
2023-05-15T05:06:16.931Z,5.10
2023-05-15T05:09:20.131Z,4.03
2023-05-15T05:12:22.457Z,5.55
2023-05-15T05:15:24.733Z,5.68
2023-05-15T05:18:27.149Z,5.00
2023-05-15T05:21:29.326Z,5.00
2023-05-15T05:24:36.882Z,5.00
2023-05-15T05:27:39.145Z,4.03
2023-05-15T05:30:48.524Z,5.20
2023-05-15T05:33:52.851Z,5.22
2023-05-15T05:36:55.021Z,5.47
2023-05-15T05:39:57.418Z,4.30
2023-05-15T05:43:00.968Z,5.38
2023-05-15T05:46:03.270Z,4.90
2023-05-15T05:49:05.558Z,5.40
2023-05-15T05:52:08.577Z,4.57
2023-05-15T05:55:11.889Z,4.03
2023-05-15T05:58:18.300Z,5.20
2023-05-15T06:01:27.816Z,5.35
2023-05-15T06:04:30.223Z,5.63
2023-05-15T06:07:32.593Z,7.10
2023-05-15T06:10:34.933Z,5.60
2023-05-15T06:13:37.058Z,4.38
2023-05-15T06:16:40.141Z,3.58
2023-05-15T06:19:42.278Z,4.97
2023-05-15T06:22:45.528Z,4.25
2023-05-15T06:25:47.682Z,4.90
2023-05-15T06:28:49.784Z,5.25
2023-05-15T06:31:54.544Z,4.70
2023-05-15T06:34:56.889Z,3.40
2023-05-15T06:37:59.017Z,3.65
2023-05-15T06:41:01.113Z,3.67
2023-05-15T06:44:03.319Z,4.13
2023-05-15T06:47:06.088Z,3.33
2023-05-15T06:50:08.782Z,3.80
2023-05-15T06:53:12.262Z,3.85
2023-05-15T06:56:16.086Z,3.75
2023-05-15T06:59:19.245Z,3.42
2023-05-15T07:02:21.267Z,3.75
2023-05-15T07:05:24.656Z,3.40
2023-05-15T07:08:27.151Z,4.20
2023-05-15T07:11:29.503Z,3.70
2023-05-15T07:14:31.485Z,4.07
2023-05-15T07:17:34.473Z,3.72
2023-05-15T07:20:36.951Z,3.38
2023-05-15T07:23:40.964Z,4.53
2023-05-15T07:26:57.441Z,3.55
2023-05-15T07:30:01.528Z,4.18
2023-05-15T07:33:04.333Z,3.30
2023-05-15T07:36:07.007Z,3.55
2023-05-15T07:39:09.448Z,5.68
2023-05-15T07:42:12.918Z,3.00
2023-05-15T07:45:18.317Z,4.53
2023-05-15T07:48:20.924Z,3.60
2023-05-15T07:51:28.377Z,2.25
2023-05-15T07:54:32.259Z,3.10
2023-05-15T07:57:34.510Z,2.83
2023-05-15T08:00:37.163Z,2.22
2023-05-15T08:03:39.392Z,3.03
2023-05-15T08:06:42.781Z,2.00
2023-05-15T08:09:46.480Z,3.45
2023-05-15T08:12:48.830Z,2.20
2023-05-15T08:15:51.154Z,2.72
2023-05-15T08:18:55.918Z,2.35
2023-05-15T08:21:58.017Z,2.40
2023-05-15T08:25:00.996Z,2.40
2023-05-15T08:28:04.522Z,2.00
2023-05-15T08:31:06.667Z,2.40
2023-05-15T08:34:08.812Z,1.90
2023-05-15T08:37:10.940Z,2.75
2023-05-15T08:40:39.242Z,2.63
2023-05-15T08:43:44.104Z,2.80
2023-05-15T08:46:47.865Z,2.40
2023-05-15T08:50:04.971Z,2.53
2023-05-15T08:53:08.122Z,3.25
2023-05-15T08:56:10.664Z,1.93
2023-05-15T08:59:12.854Z,2.80
2023-05-15T09:02:16.280Z,2.05
2023-05-15T09:05:18.391Z,2.70
2023-05-15T09:08:23.944Z,1.70
2023-05-15T09:11:27.415Z,2.80
2023-05-15T09:14:29.934Z,1.58
2023-05-15T09:17:32.022Z,1.77
2023-05-15T09:20:36.593Z,1.45
2023-05-15T09:23:38.754Z,1.58
2023-05-15T09:26:41.996Z,2.38
2023-05-15T09:29:44.147Z,1.45
2023-05-15T09:32:48.984Z,2.13
2023-05-15T09:35:51.335Z,1.90
2023-05-15T09:38:59.714Z,3.13
2023-05-15T09:42:13.349Z,2.47
2023-05-15T09:45:18.823Z,2.15
2023-05-15T09:48:21.632Z,1.92
2023-05-15T09:51:23.857Z,1.93
2023-05-15T09:54:32.525Z,1.50
2023-05-15T09:57:34.905Z,2.47
2023-05-15T10:00:48.456Z,1.52
2023-05-15T10:04:01.975Z,2.08
2023-05-15T10:07:07.879Z,2.00
2023-05-15T10:10:10.431Z,2.10
2023-05-15T10:13:12.745Z,1.73
2023-05-15T10:16:16.430Z,2.08
2023-05-15T10:19:23.729Z,2.58
2023-05-15T10:22:29.527Z,2.20
2023-05-15T10:25:49.936Z,2.40
2023-05-15T10:28:53.210Z,1.60
2023-05-15T10:31:55.759Z,0.93
2023-05-15T10:34:58.560Z,1.42
2023-05-15T10:38:03.832Z,2.15
2023-05-15T10:41:16.463Z,1.27
2023-05-15T10:44:22.022Z,2.13
2023-05-15T10:47:24.232Z,1.52
2023-05-15T10:50:27.651Z,1.73
2023-05-15T10:53:29.926Z,1.75
2023-05-15T10:56:37.196Z,1.10
2023-05-15T10:59:41.578Z,1.70
2023-05-15T11:02:44.818Z,1.15
2023-05-15T11:06:12.858Z,0.93
2023-05-15T11:09:34.597Z,1.02
2023-05-15T11:13:06.608Z,1.10
2023-05-15T11:16:12.072Z,0.82
2023-05-15T11:19:32.563Z,1.10
2023-05-15T11:22:40.192Z,1.08
2023-05-15T11:25:42.734Z,1.15
2023-05-15T11:28:45.191Z,0.93
2023-05-15T11:31:48.517Z,1.60
2023-05-15T11:34:51.398Z,1.05
2023-05-15T11:38:00.378Z,0.65
2023-05-15T11:41:16.389Z,1.00
2023-05-15T11:44:25.022Z,0.60
2023-05-15T11:47:31.734Z,1.10
2023-05-15T11:50:35.647Z,0.93
2023-05-15T11:53:39.429Z,1.25
2023-05-15T11:56:45.098Z,0.68
2023-05-15T11:59:47.225Z,1.08
2023-05-15T12:02:49.362Z,0.30
2023-05-15T12:05:58.959Z,0.57
2023-05-15T12:09:02.012Z,0.65
2023-05-15T12:12:06.402Z,0.47
2023-05-15T12:15:16.046Z,1.15
2023-05-15T12:18:18.288Z,1.05
2023-05-15T12:21:21.031Z,0.90
2023-05-15T12:24:23.226Z,1.58
2023-05-15T12:27:26.621Z,0.90
2023-05-15T12:30:30.892Z,1.70
2023-05-15T12:33:33.470Z,1.63
2023-05-15T12:36:36.521Z,1.58
2023-05-15T12:40:12.248Z,1.67
2023-05-15T12:43:15.034Z,1.35
2023-05-15T12:46:23.828Z,1.42
2023-05-15T12:49:26.042Z,1.38
2023-05-15T12:52:32.034Z,0.90
2023-05-15T12:55:36.615Z,0.57
2023-05-15T12:58:39.103Z,1.90
2023-05-15T13:01:44.813Z,1.52
2023-05-15T13:04:47.624Z,2.25
2023-05-15T13:07:50.008Z,1.23
2023-05-15T13:10:59.979Z,2.05
2023-05-15T13:14:08.827Z,2.47
2023-05-15T13:17:11.549Z,1.92
2023-05-15T13:20:13.905Z,2.03
2023-05-15T13:23:18.500Z,2.28
2023-05-15T13:26:20.949Z,2.47
2023-05-15T13:29:23.077Z,2.35
2023-05-15T13:32:25.341Z,1.75
2023-05-15T13:35:27.956Z,2.80
2023-05-15T13:38:30.233Z,2.45
2023-05-15T13:41:32.527Z,2.05
2023-05-15T13:44:35.943Z,3.28
2023-05-15T13:47:41.284Z,2.95
2023-05-15T13:50:45.674Z,3.00
2023-05-15T13:53:47.890Z,1.95
2023-05-15T13:56:50.022Z,2.13
2023-05-15T13:59:52.396Z,2.22
2023-05-15T14:02:54.832Z,4.15
2023-05-15T14:05:57.132Z,3.35
2023-05-15T14:08:59.224Z,2.80
2023-05-15T14:12:01.516Z,2.95
2023-05-15T14:15:04.197Z,2.97
2023-05-15T14:18:06.610Z,2.63
2023-05-15T14:21:09.026Z,2.67
2023-05-15T14:24:11.183Z,3.40
2023-05-15T14:27:13.353Z,3.83
2023-05-15T14:30:17.179Z,3.38
2023-05-15T14:33:20.143Z,3.42
2023-05-15T14:36:22.235Z,4.57
2023-05-15T14:39:24.562Z,4.40
2023-05-15T14:42:27.453Z,4.03
2023-05-15T14:45:29.806Z,3.10
2023-05-15T14:48:34.151Z,3.75
2023-05-15T14:51:36.561Z,3.95
2023-05-15T14:54:40.236Z,4.10
2023-05-15T14:57:42.416Z,4.18
2023-05-15T15:00:44.446Z,3.38
2023-05-15T15:03:46.572Z,3.10
2023-05-15T15:06:48.958Z,3.35
2023-05-15T15:09:51.094Z,3.22
2023-05-15T15:12:53.243Z,3.45
2023-05-15T15:15:56.117Z,4.57
2023-05-15T15:18:58.554Z,3.63
2023-05-15T15:22:00.763Z,3.63
2023-05-15T15:25:02.940Z,2.97
2023-05-15T15:28:05.383Z,4.43
2023-05-15T15:31:10.211Z,4.03
2023-05-15T15:34:22.452Z,2.95
2023-05-15T15:37:24.735Z,2.40
2023-05-15T15:40:27.256Z,3.90
2023-05-15T15:43:29.728Z,3.40
2023-05-15T15:46:32.003Z,2.45
2023-05-15T15:49:34.590Z,3.67
2023-05-15T15:52:36.971Z,2.80
2023-05-15T15:55:39.362Z,3.80
2023-05-15T15:58:41.480Z,4.28
2023-05-15T16:01:43.889Z,3.28
2023-05-15T16:04:46.079Z,3.75
2023-05-15T16:07:48.982Z,3.38
2023-05-15T16:10:54.972Z,3.47
2023-05-15T16:13:57.249Z,3.90
2023-05-15T16:16:59.473Z,3.80
2023-05-15T16:20:01.603Z,3.63
2023-05-15T16:23:03.812Z,3.03
2023-05-15T16:26:06.437Z,3.03
2023-05-15T16:29:08.535Z,2.70
2023-05-15T16:32:10.729Z,2.80
2023-05-15T16:35:13.458Z,10.32
2023-05-15T16:38:16.695Z,51.20
2023-05-15T16:41:18.864Z,18.77
2023-05-15T16:44:21.106Z,11.98
2023-05-15T16:47:23.331Z,14.45
2023-05-15T16:50:25.800Z,15.13
2023-05-15T16:53:29.449Z,12.18
2023-05-15T16:56:31.684Z,13.23
2023-05-15T16:59:33.899Z,7.10
2023-05-15T17:02:36.749Z,10.82
2023-05-15T17:05:40.096Z,4.07
2023-05-15T17:08:43.674Z,5.87
2023-05-15T17:11:46.238Z,4.70
2023-05-15T17:14:48.376Z,4.53
2023-05-15T17:17:50.682Z,3.75
2023-05-15T17:20:53.029Z,4.32
2023-05-15T17:23:56.480Z,4.80
2023-05-15T17:26:59.699Z,4.40
2023-05-15T17:30:02.781Z,4.93
2023-05-15T17:33:05.364Z,5.15
2023-05-15T17:36:07.941Z,3.85
2023-05-15T17:39:10.764Z,4.35
2023-05-15T17:42:14.624Z,4.32
2023-05-15T17:45:17.009Z,4.97
2023-05-15T17:48:19.106Z,4.55
2023-05-15T17:51:21.290Z,3.95
2023-05-15T17:54:23.403Z,3.97
2023-05-15T17:57:32.661Z,4.47
2023-05-15T18:00:35.043Z,4.47
2023-05-15T18:03:38.437Z,4.15
2023-05-15T18:06:43.500Z,4.57
2023-05-15T18:09:45.611Z,3.30
2023-05-15T18:12:47.924Z,4.18
2023-05-15T18:15:50.367Z,4.65
2023-05-15T18:18:52.581Z,4.65
2023-05-15T18:21:54.955Z,4.25
2023-05-15T18:24:57.195Z,3.60
2023-05-15T18:27:59.224Z,3.67
2023-05-15T18:31:01.564Z,4.18
2023-05-15T18:34:04.693Z,3.20
2023-05-15T18:37:07.034Z,3.28
2023-05-15T18:40:09.745Z,4.40
2023-05-15T18:43:12.260Z,4.35
2023-05-15T18:46:14.461Z,3.85
2023-05-15T18:49:18.092Z,4.53
2023-05-15T18:52:21.464Z,4.20
2023-05-15T18:55:24.083Z,4.43
2023-05-15T18:58:26.734Z,4.78
2023-05-15T19:01:30.222Z,5.72
2023-05-15T19:04:32.747Z,4.05
2023-05-15T19:07:34.832Z,4.28
2023-05-15T19:10:36.858Z,4.68
2023-05-15T19:13:39.342Z,4.35
2023-05-15T19:16:45.507Z,4.20
2023-05-15T19:19:48.177Z,5.90
2023-05-15T19:22:50.613Z,5.88
2023-05-15T19:25:52.836Z,5.10
2023-05-15T19:28:55.346Z,4.38
2023-05-15T19:31:57.469Z,3.85
2023-05-15T19:34:59.668Z,7.20
2023-05-15T19:38:01.935Z,7.15
2023-05-15T19:41:04.852Z,4.95
2023-05-15T19:44:08.337Z,5.32
2023-05-15T19:47:10.374Z,6.82
2023-05-15T19:50:12.591Z,3.67
2023-05-15T19:53:14.850Z,5.38
2023-05-15T19:56:17.212Z,5.05
2023-05-15T19:59:19.598Z,5.03
2023-05-15T20:02:22.108Z,5.70
2023-05-15T20:05:24.237Z,4.45
2023-05-15T20:08:27.652Z,5.63
2023-05-15T20:11:30.552Z,5.60
2023-05-15T20:14:34.301Z,8.05
2023-05-15T20:17:36.608Z,6.25
2023-05-15T20:20:40.089Z,5.40
2023-05-15T20:23:42.415Z,4.82
2023-05-15T20:26:45.286Z,5.47
2023-05-15T20:29:48.058Z,6.70
2023-05-15T20:32:50.648Z,4.68
2023-05-15T20:35:54.182Z,6.50
2023-05-15T20:38:57.547Z,6.47
2023-05-15T20:41:59.765Z,7.03
2023-05-15T20:45:02.609Z,5.50
2023-05-15T20:48:05.595Z,5.63
2023-05-15T20:51:07.882Z,8.65
2023-05-15T20:54:10.350Z,6.35
2023-05-15T20:57:12.474Z,7.47
2023-05-15T21:00:16.581Z,6.20
2023-05-15T21:03:19.011Z,6.97
2023-05-15T21:06:21.248Z,6.30
2023-05-15T21:09:23.456Z,6.43
2023-05-15T21:12:25.772Z,5.90
2023-05-15T21:15:27.948Z,5.43
2023-05-15T21:18:31.369Z,5.80
2023-05-15T21:21:35.952Z,7.70
2023-05-15T21:24:40.955Z,6.72
2023-05-15T21:27:43.147Z,5.22
2023-05-15T21:30:45.464Z,6.10
2023-05-15T21:33:47.887Z,5.90
2023-05-15T21:36:50.494Z,5.68
2023-05-15T21:39:52.942Z,6.18
2023-05-15T21:42:55.199Z,5.45
2023-05-15T21:45:57.440Z,6.35
2023-05-15T21:48:59.835Z,5.07
2023-05-15T21:52:02.017Z,5.78
2023-05-15T21:55:04.342Z,5.75
2023-05-15T21:58:07.383Z,5.75
2023-05-15T22:01:09.819Z,6.80
2023-05-15T22:04:12.010Z,6.55
2023-05-15T22:07:17.720Z,6.22
2023-05-15T22:10:20.014Z,6.43
2023-05-15T22:13:22.170Z,7.60
2023-05-15T22:16:24.375Z,6.32
2023-05-15T22:19:32.975Z,5.90
2023-05-15T22:22:36.126Z,5.63
2023-05-15T22:25:38.517Z,6.13
2023-05-15T22:28:42.146Z,6.07
2023-05-15T22:31:44.263Z,5.45
2023-05-15T22:34:46.461Z,8.68
2023-05-15T22:37:49.022Z,5.50
2023-05-15T22:40:52.312Z,6.57
2023-05-15T22:43:54.734Z,5.68
2023-05-15T22:46:57.423Z,6.03
2023-05-15T22:49:59.602Z,6.68
2023-05-15T22:53:01.808Z,6.90
2023-05-15T22:56:04.022Z,6.53
2023-05-15T22:59:06.858Z,7.20
2023-05-15T23:02:09.242Z,6.97
2023-05-15T23:05:11.721Z,7.43
2023-05-15T23:08:13.758Z,6.22
2023-05-15T23:11:16.052Z,7.45
2023-05-15T23:14:18.169Z,6.47
2023-05-15T23:17:20.535Z,7.60
2023-05-15T23:20:22.567Z,7.63
2023-05-15T23:23:24.688Z,7.22
2023-05-15T23:26:27.327Z,10.07
2023-05-15T23:29:29.596Z,8.40
2023-05-15T23:32:31.810Z,6.22
2023-05-15T23:35:37.738Z,6.88
2023-05-15T23:38:41.307Z,7.00
2023-05-15T23:41:43.619Z,5.47
2023-05-15T23:44:45.715Z,6.25
2023-05-15T23:47:48.202Z,6.03
2023-05-15T23:50:52.490Z,6.35
2023-05-15T23:53:54.712Z,5.80
2023-05-15T23:56:56.773Z,6.57
2023-05-15T23:59:59.592Z,6.25
